createdAt,value
2017-10-23T00:00:11.889Z,11.20
2017-10-23T00:02:40.142Z,11.20
2017-10-23T00:05:08.972Z,11.30
2017-10-23T00:07:37.221Z,11.20
2017-10-23T00:10:05.495Z,11.10
2017-10-23T00:12:33.816Z,11.00
2017-10-23T00:15:02.075Z,11.10
2017-10-23T00:17:30.334Z,11.20
2017-10-23T00:19:58.705Z,11.20
2017-10-23T00:22:26.998Z,11.30
2017-10-23T00:24:55.326Z,11.00
2017-10-23T00:27:24.400Z,11.10
2017-10-23T00:29:52.714Z,11.10
2017-10-23T00:32:20.977Z,11.20
2017-10-23T00:34:50.044Z,11.30
2017-10-23T00:37:18.297Z,11.30
2017-10-23T00:39:46.536Z,11.10
2017-10-23T00:42:14.837Z,10.80
2017-10-23T00:44:43.092Z,11.00
2017-10-23T00:47:11.339Z,11.00
2017-10-23T00:49:39.652Z,11.00
2017-10-23T00:52:07.896Z,11.20
2017-10-23T00:54:36.910Z,10.90
2017-10-23T00:57:05.188Z,10.90
2017-10-23T00:59:33.448Z,10.60
2017-10-23T01:02:01.717Z,10.30
2017-10-23T01:04:30.763Z,10.30
2017-10-23T01:06:59.019Z,10.30
2017-10-23T01:09:27.307Z,10.40
2017-10-23T01:11:55.605Z,10.30
2017-10-23T01:14:23.839Z,10.40
2017-10-23T01:16:52.086Z,10.30
2017-10-23T01:19:20.381Z,10.30
2017-10-23T01:21:48.655Z,10.60
2017-10-23T01:24:16.938Z,10.90
2017-10-23T01:26:45.254Z,10.60
2017-10-23T01:29:13.495Z,10.40
2017-10-23T01:31:41.762Z,10.40
2017-10-23T01:34:10.065Z,10.50
2017-10-23T01:36:38.319Z,10.60
2017-10-23T01:39:06.565Z,10.40
2017-10-23T01:41:35.627Z,10.30
2017-10-23T01:44:03.884Z,10.30
2017-10-23T01:46:32.129Z,10.40
2017-10-23T01:49:00.672Z,10.20
2017-10-23T01:51:28.946Z,10.00
2017-10-23T01:53:57.236Z,9.90
2017-10-23T01:56:25.546Z,9.80
2017-10-23T01:58:53.821Z,9.70
2017-10-23T02:01:22.062Z,9.80
2017-10-23T02:03:51.113Z,9.80
2017-10-23T02:06:19.351Z,9.80
2017-10-23T02:08:47.600Z,9.90
2017-10-23T02:11:16.699Z,9.70
2017-10-23T02:13:45.014Z,9.70
2017-10-23T02:16:13.276Z,9.60
2017-10-23T02:18:41.556Z,9.60
2017-10-23T02:21:09.838Z,9.70
2017-10-23T02:23:38.149Z,9.60
2017-10-23T02:26:06.459Z,9.50
2017-10-23T02:28:35.477Z,9.50
2017-10-23T02:31:03.720Z,9.40
2017-10-23T02:33:32.028Z,9.40
2017-10-23T02:36:00.257Z,9.40
2017-10-23T02:38:28.533Z,9.30
2017-10-23T02:40:56.821Z,9.30
2017-10-23T02:43:25.073Z,9.20
2017-10-23T02:45:53.311Z,9.20
2017-10-23T02:48:21.623Z,9.30
2017-10-23T02:50:49.870Z,9.30
2017-10-23T02:53:18.127Z,9.30
2017-10-23T02:55:46.499Z,9.20
2017-10-23T02:58:14.773Z,9.20
2017-10-23T03:00:43.010Z,9.30
2017-10-23T03:03:11.314Z,9.20
2017-10-23T03:05:40.319Z,9.30
2017-10-23T03:08:08.571Z,9.20
2017-10-23T03:10:37.644Z,9.20
2017-10-23T03:13:05.882Z,9.20
2017-10-23T03:15:34.121Z,9.20
2017-10-23T03:18:02.414Z,9.20
2017-10-23T03:20:30.677Z,9.20
2017-10-23T03:22:59.684Z,9.10
2017-10-23T03:25:28.038Z,9.10
2017-10-23T03:27:57.081Z,9.10
2017-10-23T03:30:25.354Z,9.10
2017-10-23T03:32:53.678Z,9.10
2017-10-23T03:35:21.934Z,9.20
2017-10-23T03:37:50.184Z,9.10
2017-10-23T03:40:18.466Z,9.10
2017-10-23T03:42:46.707Z,9.10
2017-10-23T03:45:14.968Z,9.00
2017-10-23T03:47:44.092Z,9.00
2017-10-23T03:50:12.327Z,9.00
2017-10-23T03:52:40.606Z,9.00
2017-10-23T03:55:08.888Z,8.90
2017-10-23T03:57:37.139Z,8.90
2017-10-23T04:00:05.430Z,8.90
2017-10-23T04:02:33.745Z,8.90
2017-10-23T04:05:01.979Z,8.90
2017-10-23T04:07:30.250Z,8.90
2017-10-23T04:09:58.538Z,8.90
2017-10-23T04:12:27.530Z,8.90
2017-10-23T04:14:56.551Z,8.80
2017-10-23T04:17:24.851Z,8.80
2017-10-23T04:19:53.095Z,8.90
2017-10-23T04:22:21.342Z,8.90
2017-10-23T04:24:49.616Z,8.80
2017-10-23T04:27:17.849Z,8.90
2017-10-23T04:29:46.095Z,8.80
2017-10-23T04:32:14.384Z,8.80
2017-10-23T04:34:42.624Z,8.80
2017-10-23T04:37:10.875Z,8.80
2017-10-23T04:39:39.155Z,8.80
2017-10-23T04:42:07.389Z,8.80
2017-10-23T04:44:35.638Z,8.80
2017-10-23T04:47:03.965Z,8.80
2017-10-23T04:49:32.197Z,8.80
2017-10-23T04:52:01.199Z,8.80
2017-10-23T04:54:29.511Z,8.80
2017-10-23T04:56:57.774Z,8.80
2017-10-23T04:59:26.116Z,8.80
2017-10-23T05:01:54.383Z,8.80
2017-10-23T05:04:23.390Z,8.80
2017-10-23T05:06:51.706Z,8.80
2017-10-23T05:09:19.994Z,8.80
2017-10-23T05:11:48.267Z,8.80
2017-10-23T05:14:16.499Z,8.80
2017-10-23T05:16:44.834Z,8.80
2017-10-23T05:19:13.090Z,8.80
2017-10-23T05:21:41.393Z,8.80
2017-10-23T05:24:09.676Z,8.80
2017-10-23T05:26:37.962Z,8.80
2017-10-23T05:29:06.404Z,8.80
2017-10-23T05:31:34.736Z,8.80
2017-10-23T05:34:02.968Z,8.80
2017-10-23T05:36:31.532Z,8.80
2017-10-23T05:38:59.893Z,8.90
2017-10-23T05:41:28.211Z,8.80
2017-10-23T05:43:56.461Z,9.10
2017-10-23T05:46:24.808Z,8.90
2017-10-23T05:48:53.093Z,9.00
2017-10-23T05:51:21.365Z,9.00
2017-10-23T05:53:49.661Z,9.10
2017-10-23T05:56:17.910Z,9.00
2017-10-23T05:58:46.275Z,9.10
2017-10-23T06:01:14.562Z,9.00
2017-10-23T06:03:42.816Z,9.10
2017-10-23T06:06:11.854Z,9.20
2017-10-23T06:08:40.148Z,9.20
2017-10-23T06:11:08.393Z,9.20
2017-10-23T06:13:36.627Z,9.40
2017-10-23T06:16:05.689Z,9.30
2017-10-23T06:18:33.933Z,9.30
2017-10-23T06:21:02.184Z,9.20
2017-10-23T06:23:31.260Z,9.20
2017-10-23T06:25:59.523Z,9.20
2017-10-23T06:28:27.805Z,9.20
2017-10-23T06:30:56.140Z,9.20
2017-10-23T06:33:24.383Z,9.10
2017-10-23T06:35:52.644Z,9.10
2017-10-23T06:38:21.702Z,9.30
2017-10-23T06:40:50.014Z,9.30
2017-10-23T06:43:19.010Z,9.30
2017-10-23T06:45:47.346Z,9.20
2017-10-23T06:48:15.604Z,9.30
2017-10-23T06:50:43.874Z,9.30
2017-10-23T06:53:12.173Z,9.40
2017-10-23T06:55:40.401Z,9.50
2017-10-23T06:58:08.678Z,9.40
2017-10-23T07:00:36.958Z,9.40
2017-10-23T07:03:05.201Z,9.40
2017-10-23T07:05:33.494Z,9.40
2017-10-23T07:08:02.628Z,9.80
2017-10-23T07:10:30.879Z,9.80
2017-10-23T07:12:59.134Z,9.70
2017-10-23T07:15:28.192Z,9.50
2017-10-23T07:17:56.470Z,9.50
2017-10-23T07:20:24.740Z,9.60
2017-10-23T07:22:53.057Z,9.60
2017-10-23T07:25:22.102Z,9.60
2017-10-23T07:27:50.341Z,9.60
2017-10-23T07:30:18.633Z,9.60
2017-10-23T07:32:46.992Z,9.60
2017-10-23T07:35:16.036Z,9.60
2017-10-23T07:37:44.387Z,9.50
2017-10-23T07:40:12.660Z,9.60
2017-10-23T07:42:40.926Z,9.60
2017-10-23T07:45:09.217Z,9.60
2017-10-23T07:47:37.468Z,9.70
2017-10-23T07:50:06.467Z,9.70
2017-10-23T07:52:34.746Z,9.70
2017-10-23T07:55:03.020Z,9.60
2017-10-23T07:57:31.257Z,9.60
2017-10-23T07:59:59.542Z,9.70
2017-10-23T08:02:28.565Z,9.80
2017-10-23T08:04:56.853Z,9.70
2017-10-23T08:07:25.167Z,9.80
2017-10-23T08:09:53.423Z,9.80
2017-10-23T08:12:21.682Z,9.80
2017-10-23T08:14:49.965Z,9.80
2017-10-23T08:17:18.265Z,9.90
2017-10-23T08:19:46.939Z,9.90
2017-10-23T08:22:15.251Z,9.90
2017-10-23T08:24:43.502Z,10.00
2017-10-23T08:27:11.819Z,10.00
2017-10-23T08:29:40.173Z,10.00
2017-10-23T08:32:08.428Z,10.00
2017-10-23T08:34:36.793Z,9.90
2017-10-23T08:37:05.075Z,9.90
2017-10-23T08:39:33.375Z,9.90
2017-10-23T08:42:01.635Z,9.90
2017-10-23T08:44:29.927Z,9.90
2017-10-23T08:46:58.209Z,10.10
2017-10-23T08:49:26.438Z,10.00
2017-10-23T08:51:54.729Z,9.90
2017-10-23T08:54:22.967Z,9.90
2017-10-23T08:56:51.306Z,9.90
2017-10-23T08:59:19.631Z,9.90
2017-10-23T09:01:47.886Z,9.90
2017-10-23T09:04:16.888Z,9.80
2017-10-23T09:06:45.231Z,9.80
2017-10-23T09:09:13.525Z,9.90
2017-10-23T09:11:42.541Z,10.00
2017-10-23T09:14:10.836Z,9.90
2017-10-23T09:16:39.091Z,10.00
2017-10-23T09:19:07.342Z,10.00
2017-10-23T09:21:35.729Z,10.00
2017-10-23T09:24:03.966Z,9.90
2017-10-23T09:26:32.216Z,10.00
2017-10-23T09:29:00.520Z,9.90
2017-10-23T09:31:28.824Z,9.90
2017-10-23T09:33:57.853Z,9.90
2017-10-23T09:36:26.713Z,9.90
2017-10-23T09:38:56.333Z,10.30
2017-10-23T09:41:24.590Z,10.20
2017-10-23T09:43:52.952Z,10.00
2017-10-23T09:46:21.209Z,10.00
2017-10-23T09:48:49.452Z,10.10
2017-10-23T09:51:17.744Z,10.00
2017-10-23T09:53:46.005Z,10.10
2017-10-23T09:56:14.263Z,10.00
2017-10-23T09:58:42.529Z,10.10
2017-10-23T10:01:10.883Z,10.10
2017-10-23T10:03:39.128Z,10.10
2017-10-23T10:06:07.451Z,10.10
2017-10-23T10:08:35.716Z,10.30
2017-10-23T10:11:05.103Z,10.20
2017-10-23T10:13:33.430Z,10.20
2017-10-23T10:16:02.085Z,10.30
2017-10-23T10:18:30.409Z,10.30
2017-10-23T10:21:00.807Z,10.40
2017-10-23T10:23:29.055Z,10.30
2017-10-23T10:26:00.288Z,10.40
2017-10-23T10:28:29.840Z,10.50
2017-10-23T10:30:58.219Z,10.50
2017-10-23T10:33:26.463Z,10.50
2017-10-23T10:35:55.532Z,10.60
2017-10-23T10:38:23.852Z,10.60
2017-10-23T10:40:52.108Z,10.70
2017-10-23T10:43:21.176Z,10.60
2017-10-23T10:45:49.451Z,10.60
2017-10-23T10:48:17.718Z,10.60
2017-10-23T10:50:46.056Z,10.60
2017-10-23T10:53:14.305Z,10.70
2017-10-23T10:55:43.350Z,10.50
2017-10-23T10:58:11.650Z,10.50
2017-10-23T11:00:39.913Z,10.50
2017-10-23T11:03:08.185Z,10.50
2017-10-23T11:05:36.467Z,10.50
2017-10-23T11:08:04.704Z,10.60
2017-10-23T11:10:32.999Z,11.00
2017-10-23T11:13:01.290Z,11.00
2017-10-23T11:15:29.602Z,11.20
2017-10-23T11:17:57.882Z,11.00
2017-10-23T11:20:26.939Z,10.70
2017-10-23T11:22:55.193Z,10.70
2017-10-23T11:25:23.442Z,10.60
2017-10-23T11:27:52.506Z,10.80
2017-10-23T11:30:20.815Z,10.70
2017-10-23T11:32:49.078Z,10.70
2017-10-23T11:35:18.156Z,10.80
2017-10-23T11:37:46.436Z,10.80
2017-10-23T11:40:14.764Z,10.70
2017-10-23T11:42:43.108Z,10.70
2017-10-23T11:45:12.182Z,10.60
2017-10-23T11:47:41.263Z,10.60
2017-10-23T11:50:09.579Z,10.60
2017-10-23T11:52:37.933Z,10.90
2017-10-23T11:55:06.224Z,10.80
2017-10-23T11:57:34.583Z,10.80
2017-10-23T12:00:02.863Z,10.80
2017-10-23T12:02:31.138Z,10.80
2017-10-23T12:04:59.530Z,10.80
2017-10-23T12:07:27.909Z,10.80
2017-10-23T12:09:56.909Z,10.80
2017-10-23T12:12:25.210Z,10.80
2017-10-23T12:14:53.458Z,10.80
2017-10-23T12:17:22.487Z,10.60
2017-10-23T12:19:50.775Z,10.60
2017-10-23T12:22:19.047Z,10.60
2017-10-23T12:24:48.756Z,10.60
2017-10-23T12:27:17.186Z,10.60
2017-10-23T12:29:46.237Z,10.60
2017-10-23T12:32:14.522Z,10.60
2017-10-23T12:34:42.815Z,10.70
2017-10-23T12:37:11.115Z,10.80
2017-10-23T12:39:40.144Z,10.60
2017-10-23T12:42:08.465Z,10.50
2017-10-23T12:44:36.752Z,10.40
2017-10-23T12:47:05.822Z,10.50
2017-10-23T12:49:34.160Z,10.50
2017-10-23T12:52:02.412Z,10.70
2017-10-23T12:54:31.415Z,10.50
2017-10-23T12:56:59.716Z,10.50
2017-10-23T12:59:27.975Z,10.60
2017-10-23T13:01:56.240Z,10.50
2017-10-23T13:04:24.996Z,10.60
2017-10-23T13:06:53.257Z,10.50
2017-10-23T13:09:21.518Z,10.60
2017-10-23T13:11:49.807Z,10.50
2017-10-23T13:14:18.863Z,10.50
2017-10-23T13:16:47.127Z,10.50
2017-10-23T13:19:15.459Z,10.40
2017-10-23T13:21:43.700Z,10.30
2017-10-23T13:24:11.967Z,10.30
2017-10-23T13:26:40.275Z,10.30
2017-10-23T13:29:08.550Z,10.20
2017-10-23T13:31:36.855Z,10.30
2017-10-23T13:34:05.929Z,10.40
2017-10-23T13:36:34.191Z,10.30
2017-10-23T13:39:02.474Z,10.40
2017-10-23T13:41:30.829Z,10.40
2017-10-23T13:44:00.264Z,10.40
2017-10-23T13:46:28.528Z,10.40
2017-10-23T13:48:56.866Z,10.50
2017-10-23T13:51:25.175Z,10.50
2017-10-23T13:53:53.427Z,10.50
2017-10-23T13:56:21.711Z,10.50
2017-10-23T13:58:49.979Z,10.50
2017-10-23T14:01:18.264Z,10.40
2017-10-23T14:03:47.286Z,10.60
2017-10-23T14:06:15.617Z,10.50
2017-10-23T14:08:43.939Z,10.50
2017-10-23T14:11:12.274Z,10.50
2017-10-23T14:13:40.559Z,10.60
2017-10-23T14:16:08.827Z,10.40
2017-10-23T14:18:37.319Z,10.30
2017-10-23T14:21:05.772Z,10.20
2017-10-23T14:23:34.093Z,10.20
2017-10-23T14:26:02.524Z,10.30
2017-10-23T14:28:30.842Z,10.30
2017-10-23T14:30:59.168Z,10.30
2017-10-23T14:33:27.959Z,10.20
2017-10-23T14:35:56.986Z,10.00
2017-10-23T14:38:25.316Z,10.00
2017-10-23T14:40:53.668Z,10.10
2017-10-23T14:43:22.680Z,10.00
2017-10-23T14:45:51.134Z,10.00
2017-10-23T14:48:19.823Z,10.00
2017-10-23T14:50:48.113Z,9.90
2017-10-23T14:53:16.391Z,10.00
2017-10-23T14:55:44.763Z,10.00
2017-10-23T14:58:13.047Z,10.00
2017-10-23T15:00:41.376Z,10.00
2017-10-23T15:03:09.736Z,9.90
2017-10-23T15:05:38.052Z,10.00
2017-10-23T15:08:06.437Z,10.00
2017-10-23T15:10:35.284Z,10.00
2017-10-23T15:13:03.572Z,10.00
2017-10-23T15:15:31.856Z,10.10
2017-10-23T15:18:00.588Z,10.10
2017-10-23T15:20:29.637Z,10.10
2017-10-23T15:22:57.947Z,10.00
2017-10-23T15:25:26.338Z,10.00
2017-10-23T15:27:54.616Z,10.00
2017-10-23T15:30:23.681Z,10.10
2017-10-23T15:32:52.470Z,10.00
2017-10-23T15:35:20.743Z,10.10
2017-10-23T15:37:49.050Z,10.10
2017-10-23T15:40:18.357Z,10.00
2017-10-23T15:42:47.393Z,10.00
2017-10-23T15:45:15.737Z,10.00
2017-10-23T15:47:45.472Z,10.10
2017-10-23T15:50:13.882Z,10.00
2017-10-23T15:52:42.211Z,10.00
2017-10-23T15:55:10.490Z,10.00
2017-10-23T15:57:39.172Z,10.00
2017-10-23T16:00:07.432Z,10.00
2017-10-23T16:02:35.769Z,10.10
2017-10-23T16:05:04.143Z,10.10
2017-10-23T16:07:32.470Z,10.10
2017-10-23T16:10:00.825Z,10.10
2017-10-23T16:12:29.916Z,10.00
2017-10-23T16:14:59.095Z,10.00
2017-10-23T16:17:27.419Z,10.10
2017-10-23T16:19:57.584Z,10.10
2017-10-23T16:22:25.954Z,10.00
2017-10-23T16:24:54.203Z,10.10
2017-10-23T16:27:22.548Z,10.00
2017-10-23T16:29:51.257Z,10.00
2017-10-23T16:32:20.289Z,10.00
2017-10-23T16:34:48.618Z,10.00
2017-10-23T16:37:17.751Z,9.90
2017-10-23T16:39:46.022Z,9.90
2017-10-23T16:42:14.360Z,9.90
2017-10-23T16:44:43.458Z,10.00
2017-10-23T16:47:12.620Z,9.90
2017-10-23T16:49:41.119Z,10.00
2017-10-23T16:52:09.439Z,9.90
2017-10-23T16:54:37.711Z,10.00
2017-10-23T16:57:06.211Z,10.00
2017-10-23T16:59:35.088Z,10.00
2017-10-23T17:02:03.431Z,10.00
2017-10-23T17:04:33.536Z,10.00
2017-10-23T17:07:02.250Z,10.00
2017-10-23T17:09:33.147Z,10.30
2017-10-23T17:12:16.324Z,10.30
2017-10-23T17:14:44.587Z,10.50
2017-10-23T17:17:13.608Z,10.50
2017-10-23T17:19:41.956Z,10.50
2017-10-23T17:22:10.233Z,10.60
2017-10-23T17:24:39.254Z,10.50
2017-10-23T17:27:07.580Z,10.50
2017-10-23T17:29:35.888Z,10.30
2017-10-23T17:32:04.170Z,10.40
2017-10-23T17:34:36.888Z,10.20
2017-10-23T17:37:05.201Z,10.20
2017-10-23T17:39:33.679Z,10.20
2017-10-23T17:42:02.857Z,10.10
2017-10-23T17:44:31.108Z,10.10
2017-10-23T17:46:59.423Z,10.10
2017-10-23T17:49:27.771Z,10.10
2017-10-23T17:51:56.017Z,10.10
2017-10-23T17:54:24.331Z,10.00
2017-10-23T17:56:52.691Z,10.00
2017-10-23T17:59:20.988Z,10.00
2017-10-23T18:01:49.311Z,10.00
2017-10-23T18:04:17.984Z,10.00
2017-10-23T18:06:47.031Z,10.00
2017-10-23T18:09:15.361Z,10.00
2017-10-23T18:11:43.727Z,10.00
2017-10-23T18:14:13.911Z,10.00
2017-10-23T18:16:42.281Z,10.00
2017-10-23T18:19:10.579Z,10.10
2017-10-23T18:21:38.836Z,9.90
2017-10-23T18:24:07.253Z,9.90
2017-10-23T18:26:36.342Z,9.90
2017-10-23T18:29:06.289Z,9.90
2017-10-23T18:31:35.396Z,9.90
2017-10-23T18:34:03.693Z,9.90
2017-10-23T18:36:32.038Z,9.90
2017-10-23T18:39:00.387Z,9.90
2017-10-23T18:41:28.645Z,9.90
2017-10-23T18:43:57.143Z,9.90
2017-10-23T18:46:26.230Z,9.90
2017-10-23T18:48:54.500Z,9.80
2017-10-23T18:51:22.847Z,9.90
2017-10-23T18:53:51.198Z,9.90
2017-10-23T18:56:19.540Z,9.90
2017-10-23T18:58:47.885Z,9.90
2017-10-23T19:01:16.190Z,9.90
2017-10-23T19:03:46.360Z,10.00
2017-10-23T19:06:14.715Z,10.00
2017-10-23T19:08:44.665Z,10.00
2017-10-23T19:11:12.950Z,10.10
2017-10-23T19:13:42.036Z,10.30
2017-10-23T19:16:10.768Z,10.30
2017-10-23T19:18:39.865Z,10.00
2017-10-23T19:21:08.936Z,10.10
2017-10-23T19:23:37.354Z,10.00
2017-10-23T19:26:05.665Z,10.00
2017-10-23T19:28:34.016Z,10.00
2017-10-23T19:31:02.420Z,10.10
2017-10-23T19:33:30.705Z,10.00
2017-10-23T19:35:59.016Z,10.10
2017-10-23T19:38:27.824Z,10.10
2017-10-23T19:40:56.159Z,10.00
2017-10-23T19:43:24.465Z,9.90
2017-10-23T19:45:52.911Z,10.00
2017-10-23T19:48:21.212Z,10.00
2017-10-23T19:50:50.403Z,9.90
2017-10-23T19:53:19.651Z,9.90
2017-10-23T19:55:47.923Z,10.00
2017-10-23T19:58:16.189Z,10.00
2017-10-23T20:00:44.556Z,10.00
2017-10-23T20:03:13.574Z,10.00
2017-10-23T20:05:42.028Z,9.90
2017-10-23T20:08:10.407Z,10.00
2017-10-23T20:10:38.738Z,10.00
2017-10-23T20:13:07.906Z,9.90
2017-10-23T20:15:36.226Z,9.90
2017-10-23T20:18:04.540Z,10.00
2017-10-23T20:20:32.906Z,9.90
2017-10-23T20:23:01.285Z,9.90
2017-10-23T20:25:30.675Z,9.90
2017-10-23T20:27:58.990Z,9.90
2017-10-23T20:30:27.300Z,9.80
2017-10-23T20:32:56.080Z,9.80
2017-10-23T20:35:24.392Z,9.80
2017-10-23T20:37:53.491Z,9.80
2017-10-23T20:40:22.625Z,9.80
2017-10-23T20:42:50.963Z,9.80
2017-10-23T20:45:20.006Z,9.70
2017-10-23T20:47:49.054Z,9.70
2017-10-23T20:50:18.105Z,9.70
2017-10-23T20:52:46.412Z,9.70
2017-10-23T20:55:14.857Z,9.70
2017-10-23T20:57:43.091Z,9.60
2017-10-23T21:00:12.606Z,9.40
2017-10-23T21:02:40.886Z,9.50
2017-10-23T21:05:09.237Z,9.40
2017-10-23T21:07:38.710Z,9.40
2017-10-23T21:10:07.013Z,9.40
2017-10-23T21:12:36.074Z,9.30
2017-10-23T21:15:05.516Z,9.30
2017-10-23T21:17:33.840Z,9.30
2017-10-23T21:20:02.099Z,9.20
2017-10-23T21:22:30.459Z,9.20
2017-10-23T21:24:58.706Z,9.20
2017-10-23T21:27:26.947Z,9.10
2017-10-23T21:29:55.311Z,9.10
2017-10-23T21:32:23.611Z,9.00
2017-10-23T21:34:51.913Z,9.00
2017-10-23T21:37:20.207Z,8.90
2017-10-23T21:39:48.504Z,8.90
2017-10-23T21:42:16.741Z,8.90
2017-10-23T21:44:45.944Z,8.80
2017-10-23T21:47:17.218Z,8.80
2017-10-23T21:49:45.574Z,8.80
2017-10-23T21:52:14.706Z,8.80
2017-10-23T21:54:43.779Z,8.80
2017-10-23T21:57:12.101Z,8.70
2017-10-23T21:59:40.425Z,8.70
2017-10-23T22:02:09.508Z,8.80
2017-10-23T22:04:37.824Z,8.70
2017-10-23T22:07:06.609Z,9.00
2017-10-23T22:09:34.858Z,9.00
2017-10-23T22:12:03.170Z,8.90
2017-10-23T22:14:31.565Z,8.90
2017-10-23T22:16:59.890Z,8.80
2017-10-23T22:19:28.202Z,8.70
2017-10-23T22:21:56.537Z,8.70
2017-10-23T22:24:25.616Z,8.60
2017-10-23T22:26:53.908Z,8.60
2017-10-23T22:29:22.316Z,8.60
2017-10-23T22:31:50.559Z,8.70
2017-10-23T22:34:18.830Z,8.70
2017-10-23T22:36:47.969Z,8.60
2017-10-23T22:39:16.286Z,8.50
2017-10-23T22:41:44.542Z,8.50
2017-10-23T22:44:12.843Z,8.50
2017-10-23T22:46:41.149Z,8.50
2017-10-23T22:49:10.215Z,8.40
2017-10-23T22:51:38.610Z,8.40
2017-10-23T22:54:07.619Z,8.50
2017-10-23T22:56:35.929Z,8.40
2017-10-23T22:59:04.248Z,8.50
2017-10-23T23:01:33.317Z,8.40
2017-10-23T23:04:01.610Z,8.40
2017-10-23T23:06:29.908Z,8.40
2017-10-23T23:08:58.220Z,8.40
2017-10-23T23:11:26.953Z,8.30
2017-10-23T23:13:56.020Z,8.30
2017-10-23T23:16:24.310Z,8.30
2017-10-23T23:18:52.547Z,8.30
2017-10-23T23:21:20.833Z,8.30
2017-10-23T23:23:49.200Z,8.20
2017-10-23T23:26:17.455Z,8.20
2017-10-23T23:28:45.700Z,8.20
2017-10-23T23:31:14.105Z,8.10
2017-10-23T23:33:43.191Z,8.00
2017-10-23T23:36:12.303Z,8.10
2017-10-23T23:38:40.956Z,8.00
2017-10-23T23:41:10.043Z,7.90
2017-10-23T23:43:38.315Z,7.90
2017-10-23T23:46:06.660Z,7.90
2017-10-23T23:48:34.990Z,7.90
2017-10-23T23:51:04.029Z,7.90
2017-10-23T23:53:32.392Z,7.90
2017-10-23T23:56:00.647Z,8.00
2017-10-23T23:58:29.647Z,7.90
